Time;durP1;ratioP1;P1;durP2;ratioP2;P2;SDS_P1;SDS_P2;PMS_P1;PMS_P2;Temp;Humidity;BMP_temperature;BMP_pressure;BME280_temperature;BME280_humidity;BME280_pressure;Samples;Min_cycle;Max_cycle;Signal;HPM_P1;HPM_P2
2023/04/13 10:57:09;;;;;;;3.58;1.38;;;12.70;98.20;;;;;;5057190;28;20391;-81
2023/04/13 10:59:40;;;;;;;1.15;0.90;;;12.90;99.10;;;;;;5038239;28;20556;-82
2023/04/13 11:02:24;;;;;;;1.38;0.90;;;13.10;98.80;;;;;;5055704;28;20063;-82
2023/04/13 11:04:51;;;;;;;2.42;1.52;;;13.40;97.80;;;;;;5036784;28;20510;-82
2023/04/13 11:07:22;;;;;;;4.15;1.83;;;13.40;96.60;;;;;;5017030;28;20060;-83
2023/04/13 11:09:52;;;;;;;1.80;1.15;;;13.30;96.70;;;;;;5034382;28;20132;-84
2023/04/13 11:12:19;;;;;;;3.97;1.38;;;13.40;96.00;;;;;;5034333;28;20171;-84
2023/04/13 11:14:46;;;;;;;2.08;1.33;;;13.60;96.40;;;;;;5050671;28;20060;-84
2023/04/13 11:17:15;;;;;;;2.60;1.27;;;13.70;95.00;;;;;;5019440;28;20162;-84
2023/04/13 11:19:47;;;;;;;2.47;0.93;;;13.90;96.30;;;;;;5018914;28;20056;-84
2023/04/13 11:22:17;;;;;;;3.45;1.60;;;14.10;95.30;;;;;;5034552;28;20053;-85
2023/04/13 11:24:46;;;;;;;2.83;1.05;;;14.10;95.20;;;;;;5050553;28;20996;-85
2023/04/13 11:27:20;;;;;;;1.83;0.95;;;14.10;95.20;;;;;;5052385;28;20076;-83
2023/04/13 11:30:07;;;;;;;2.40;1.13;;;14.10;94.30;;;;;;5051983;28;20853;-83
2023/04/13 11:32:36;;;;;;;2.28;1.08;;;13.80;92.80;;;;;;5035561;28;20048;-83
2023/04/13 11:35:13;;;;;;;1.95;0.98;;;13.90;92.50;;;;;;5051511;28;20686;-83
2023/04/13 11:37:42;;;;;;;3.17;1.10;;;13.70;92.40;;;;;;5009043;28;20057;-84
2023/04/13 11:40:16;;;;;;;2.90;1.25;;;13.30;93.30;;;;;;5011487;28;20053;-83
2023/04/13 11:42:45;;;;;;;2.42;1.20;;;12.90;93.30;;;;;;4998516;28;20405;-80
2023/04/13 11:45:15;;;;;;;2.25;1.08;;;12.50;99.10;;;;;;5014303;28;20049;-76
2023/04/13 11:47:44;;;;;;;3.55;1.08;;;11.10;99.90;;;;;;5031234;28;20978;-78
2023/04/13 11:50:11;;;;;;;2.58;1.35;;;9.90;99.90;;;;;;5031235;28;20057;-81
2023/04/13 11:52:41;;;;;;;4.40;1.40;;;9.20;99.90;;;;;;5014767;28;20052;-81
2023/04/13 11:55:12;;;;;;;1.95;0.75;;;9.00;99.90;;;;;;5011561;28;20048;-81
2023/04/13 11:57:49;;;;;;;1.70;1.02;;;8.90;99.90;;;;;;5013913;28;20048;-81
2023/04/13 12:00:22;;;;;;;1.58;0.90;;;9.00;99.90;;;;;;5014398;28;20049;-81
2023/04/13 12:02:51;;;;;;;1.40;1.10;;;9.10;99.90;;;;;;5046805;28;20080;-81
2023/04/13 12:05:29;;;;;;;1.65;1.25;;;9.40;99.90;;;;;;5026495;28;20049;-81
2023/04/13 12:07:57;;;;;;;3.47;1.38;;;10.00;99.90;;;;;;5018330;28;20394;-81
2023/04/13 12:10:27;;;;;;;2.90;1.40;;;10.60;99.90;;;;;;4996262;28;20054;-81
2023/04/13 12:13:12;;;;;;;4.45;1.08;;;11.30;99.90;;;;;;4988551;28;20360;-82
2023/04/13 12:15:45;;;;;;;2.20;1.00;;;11.60;99.90;;;;;;5010449;28;20049;-82
2023/04/13 12:18:40;;;;;;;1.98;1.17;;;11.70;99.90;;;;;;5004980;28;20426;-82
2023/04/13 12:21:15;;;;;;;1.55;1.02;;;11.50;99.90;;;;;;4999081;28;20095;-82
2023/04/13 12:23:52;;;;;;;1.27;1.00;;;11.20;99.90;;;;;;5014628;28;20049;-81
2023/04/13 12:26:19;;;;;;;1.65;1.05;;;11.30;99.90;;;;;;5015428;28;20061;-81
2023/04/13 12:29:06;;;;;;;5.40;2.13;;;11.70;99.90;;;;;;5015882;28;20107;-83
2023/04/13 12:31:37;;;;;;;1.80;0.98;;;12.00;99.90;;;;;;4996817;28;20454;-83
2023/04/13 12:34:06;;;;;;;1.65;1.20;;;12.40;99.90;;;;;;5006881;28;20408;-83
2023/04/13 12:36:35;;;;;;;2.78;1.35;;;12.90;99.90;;;;;;5021423;28;20109;-83
2023/04/13 12:39:03;;;;;;;2.25;1.23;;;13.20;97.70;;;;;;5012389;28;20126;-84
2023/04/13 12:41:31;;;;;;;1.90;1.38;;;13.40;97.70;;;;;;4998579;28;20054;-83
2023/04/13 12:43:58;;;;;;;1.85;1.17;;;13.80;97.80;;;;;;5016776;28;20121;-87
2023/04/13 12:46:25;;;;;;;2.13;1.10;;;14.30;97.10;;;;;;5007078;28;20076;-86
2023/04/13 12:48:53;;;;;;;1.33;1.00;;;14.60;95.30;;;;;;5021456;28;20053;-87
2023/04/13 12:51:21;;;;;;;1.42;0.90;;;14.50;95.20;;;;;;5036865;28;20602;-82
2023/04/13 12:53:48;;;;;;;1.00;0.80;;;14.50;95.60;;;;;;5020075;28;20899;-91
2023/04/13 12:56:15;;;;;;;1.52;0.80;;;14.70;92.10;;;;;;5019120;28;20061;-84
2023/04/13 12:58:43;;;;;;;1.20;1.00;;;14.90;90.70;;;;;;5000501;28;20054;-84
2023/04/13 13:01:12;;;;;;;1.33;0.88;;;14.80;88.10;;;;;;5013844;28;20462;-83
2023/04/13 13:03:40;;;;;;;2.33;0.95;;;14.10;89.10;;;;;;5016929;28;20058;-83
2023/04/13 13:06:07;;;;;;;1.92;0.88;;;13.20;90.10;;;;;;5016719;28;20049;-83
2023/04/13 13:08:35;;;;;;;1.38;0.88;;;12.40;90.40;;;;;;4982794;28;20053;-82
2023/04/13 13:11:07;;;;;;;1.55;0.90;;;11.60;94.40;;;;;;5008617;28;20479;-81
2023/04/13 13:13:34;;;;;;;0.85;0.68;;;11.00;96.90;;;;;;4995349;28;20067;-82
2023/04/13 13:16:02;;;;;;;0.75;0.60;;;10.60;98.90;;;;;;5019088;28;20148;-82
2023/04/13 13:18:29;;;;;;;1.83;0.80;;;10.50;98.00;;;;;;5002642;28;20045;-82
2023/04/13 13:21:16;;;;;;;1.23;0.70;;;10.50;97.00;;;;;;5000372;28;20136;-83
2023/04/13 13:23:44;;;;;;;0.60;0.60;;;10.50;97.80;;;;;;5008769;28;20480;-82
2023/04/13 13:26:12;;;;;;;0.70;0.70;;;10.60;98.40;;;;;;4984718;28;20189;-83
2023/04/13 13:28:50;;;;;;;0.70;0.70;;;10.80;99.00;;;;;;4985989;28;20151;-84
2023/04/13 13:31:18;;;;;;;1.27;1.08;;;11.50;99.80;;;;;;4995106;28;20069;-84
2023/04/13 13:33:46;;;;;;;0.98;0.93;;;12.70;98.10;;;;;;5015888;28;20053;-85
2023/04/13 13:36:14;;;;;;;1.20;1.00;;;13.90;95.60;;;;;;5038289;28;20178;-84
2023/04/13 13:38:42;;;;;;;1.67;1.08;;;15.00;92.30;;;;;;5021512;28;20969;-85
2023/04/13 13:41:10;;;;;;;1.10;0.80;;;15.80;91.20;;;;;;5003149;28;20054;-85
2023/04/13 13:43:38;;;;;;;1.55;0.98;;;16.50;90.50;;;;;;4993637;28;20081;-86
2023/04/13 13:46:05;;;;;;;2.40;0.90;;;17.00;87.40;;;;;;5018155;28;20501;-84
2023/04/13 13:48:33;;;;;;;1.63;0.88;;;17.40;86.50;;;;;;5002385;28;20129;-84
2023/04/13 13:51:00;;;;;;;1.20;0.70;;;17.70;86.70;;;;;;5028293;28;20115;-85
2023/04/13 13:53:27;;;;;;;1.13;0.80;;;18.00;85.70;;;;;;5019711;28;20053;-83
2023/04/13 13:55:55;;;;;;;1.67;0.90;;;18.00;84.50;;;;;;5019948;28;20057;-84
2023/04/13 13:58:22;;;;;;;1.25;0.85;;;18.00;83.10;;;;;;5018616;28;20045;-85
2023/04/13 14:00:49;;;;;;;1.63;0.80;;;18.30;83.90;;;;;;4999589;28;20140;-85
2023/04/13 14:03:16;;;;;;;1.10;0.70;;;18.70;81.50;;;;;;4999241;28;20128;-82
2023/04/13 14:05:43;;;;;;;1.55;0.90;;;18.40;81.30;;;;;;5014728;28;20058;-84
2023/04/13 14:08:10;;;;;;;1.25;0.80;;;17.60;82.70;;;;;;4997445;28;20171;-83
2023/04/13 14:10:37;;;;;;;2.08;1.00;;;16.60;81.50;;;;;;5013206;28;20107;-84
2023/04/13 14:13:05;;;;;;;1.23;0.68;;;16.30;83.90;;;;;;5016961;28;20057;-84
2023/04/13 14:15:32;;;;;;;1.90;1.00;;;16.50;83.90;;;;;;4998186;28;20084;-83
2023/04/13 14:17:59;;;;;;;1.52;1.05;;;15.90;85.20;;;;;;4998749;28;20103;-84
2023/04/13 14:20:37;;;;;;;1.33;1.10;;;16.50;85.40;;;;;;4998865;28;20140;-84
2023/04/13 14:23:06;;;;;;;1.63;1.00;;;17.50;88.10;;;;;;5015497;28;20908;-83
2023/04/13 14:25:33;;;;;;;1.00;0.82;;;18.10;87.30;;;;;;4998177;28;20056;-83
2023/04/13 14:28:00;;;;;;;0.85;0.70;;;18.90;87.10;;;;;;5014730;28;20049;-83
2023/04/13 14:30:28;;;;;;;1.85;1.67;;;19.40;85.90;;;;;;4996987;28;20859;-82
2023/04/13 14:32:55;;;;;;;1.40;0.93;;;19.80;91.30;;;;;;5012969;28;20119;-80
2023/04/13 14:35:22;;;;;;;2.08;1.02;;;18.30;99.30;;;;;;4996621;28;20060;-81
2023/04/13 14:37:50;;;;;;;1.52;1.00;;;15.90;99.90;;;;;;4997373;28;20053;-83
2023/04/13 14:40:20;;;;;;;1.48;1.00;;;13.80;99.90;;;;;;4995347;28;20053;-81
2023/04/13 14:42:51;;;;;;;1.40;0.95;;;13.30;99.90;;;;;;4998234;28;20057;-80
2023/04/13 14:45:19;;;;;;;1.02;0.82;;;13.00;99.90;;;;;;5011970;28;20160;-81
2023/04/13 14:47:47;;;;;;;1.75;0.98;;;13.10;99.90;;;;;;4998333;28;20845;-81
2023/04/13 14:50:15;;;;;;;1.40;1.00;;;13.80;99.90;;;;;;5013383;28;20052;-82
2023/04/13 14:52:43;;;;;;;1.73;1.10;;;14.50;99.90;;;;;;4994905;28;20061;-83
2023/04/13 14:55:10;;;;;;;1.48;0.93;;;15.40;99.90;;;;;;4991859;28;20301;-84
2023/04/13 14:57:37;;;;;;;1.95;0.75;;;16.40;96.90;;;;;;4995127;28;20566;-83
2023/04/13 15:00:14;;;;;;;1.85;0.80;;;16.10;92.80;;;;;;4997388;28;20350;-82
2023/04/13 15:02:41;;;;;;;2.10;0.80;;;15.70;91.90;;;;;;5032562;28;20470;-82
2023/04/13 15:05:09;;;;;;;1.98;0.77;;;16.40;91.10;;;;;;4997918;28;20218;-84
2023/04/13 15:07:37;;;;;;;2.75;0.73;;;16.30;89.30;;;;;;4996466;28;20053;-83
2023/04/13 15:10:07;;;;;;;2.60;0.95;;;15.80;90.10;;;;;;5012411;28;20141;-83
2023/04/13 15:12:34;;;;;;;1.73;0.80;;;14.80;85.80;;;;;;5015742;28;20103;-84
2023/04/13 15:15:01;;;;;;;2.25;1.10;;;14.10;87.60;;;;;;5002135;28;20161;-83
2023/04/13 15:17:28;;;;;;;1.50;1.10;;;13.50;86.80;;;;;;5002478;28;20136;-84
2023/04/13 15:19:56;;;;;;;1.73;1.30;;;13.10;87.60;;;;;;5002769;28;20115;-84
2023/04/13 15:22:23;;;;;;;0.73;0.60;;;12.90;89.50;;;;;;5019529;28;20061;-83
2023/04/13 15:24:51;;;;;;;2.05;0.95;;;12.80;90.40;;;;;;5018676;28;20057;-83
2023/04/13 15:27:19;;;;;;;1.85;0.90;;;12.70;91.00;;;;;;5018377;28;20052;-82
2023/04/13 15:29:50;;;;;;;1.00;0.85;;;12.70;91.70;;;;;;5001833;28;20064;-84
2023/04/13 15:32:18;;;;;;;0.82;0.70;;;12.80;92.20;;;;;;5002079;28;20052;-83
2023/04/13 15:34:47;;;;;;;0.90;0.70;;;13.00;92.60;;;;;;5008284;28;20594;-84
2023/04/13 15:37:15;;;;;;;0.70;0.70;;;13.10;92.50;;;;;;5033249;28;20048;-80
2023/04/13 15:39:42;;;;;;;1.38;0.70;;;13.30;92.10;;;;;;5024136;28;20622;-82
2023/04/13 15:42:10;;;;;;;2.03;1.20;;;13.40;91.70;;;;;;5023208;28;20123;-82
2023/04/13 15:44:37;;;;;;;1.00;0.90;;;13.20;91.80;;;;;;5018576;28;20630;-81
2023/04/13 15:47:04;;;;;;;0.98;0.77;;;13.10;91.60;;;;;;5018752;28;20053;-81
2023/04/13 15:49:31;;;;;;;1.30;0.90;;;13.20;92.00;;;;;;5002272;28;20153;-82
2023/04/13 15:51:58;;;;;;;1.50;0.90;;;13.50;92.00;;;;;;5018313;28;20761;-81
2023/04/13 15:54:25;;;;;;;1.10;0.90;;;13.90;91.30;;;;;;5017400;28;20107;-82
2023/04/13 15:56:53;;;;;;;1.38;1.00;;;14.80;90.60;;;;;;5001764;28;20544;-82
2023/04/13 15:59:19;;;;;;;1.05;0.80;;;15.90;90.10;;;;;;5017671;28;20472;-80
2023/04/13 16:01:47;;;;;;;0.65;0.60;;;17.10;86.80;;;;;;5003282;28;20053;-82
2023/04/13 16:04:15;;;;;;;0.80;0.80;;;17.90;85.20;;;;;;5000430;28;20524;-82
2023/04/13 16:06:45;;;;;;;1.10;0.70;;;18.70;84.20;;;;;;5000360;28;20072;-82
2023/04/13 16:09:17;;;;;;;0.90;0.60;;;19.30;80.40;;;;;;4999951;28;20060;-82
2023/04/13 16:11:44;;;;;;;0.60;0.60;;;19.60;78.20;;;;;;5033300;28;20391;-82
2023/04/13 16:14:11;;;;;;;0.73;0.70;;;20.10;78.00;;;;;;5001134;28;20061;-83
2023/04/13 16:16:45;;;;;;;1.48;0.95;;;20.30;76.80;;;;;;5033900;28;20072;-83
2023/04/13 16:19:12;;;;;;;0.50;0.50;;;20.10;79.90;;;;;;5019334;28;20049;-82
2023/04/13 16:21:42;;;;;;;0.50;0.50;;;20.10;83.70;;;;;;5000586;28;20053;-81
2023/04/13 16:24:09;;;;;;;1.30;0.85;;;20.30;84.60;;;;;;5012498;28;20058;-82
2023/04/13 16:26:36;;;;;;;0.93;0.77;;;20.70;81.40;;;;;;5014411;28;20161;-82
2023/04/13 16:29:04;;;;;;;0.75;0.65;;;20.90;82.80;;;;;;4981357;28;20045;-81
2023/04/13 16:31:31;;;;;;;0.82;0.70;;;21.00;82.70;;;;;;4990118;28;20120;-82
2023/04/13 16:33:58;;;;;;;0.60;0.50;;;21.30;83.70;;;;;;5011175;28;20386;-81
2023/04/13 16:36:26;;;;;;;1.13;0.60;;;21.30;82.30;;;;;;5000817;28;20111;-80
2023/04/13 16:38:52;;;;;;;1.77;0.40;;;20.50;81.70;;;;;;5000257;28;20172;-80
2023/04/13 16:41:19;;;;;;;1.23;0.40;;;19.10;80.20;;;;;;5001523;28;20054;-81
2023/04/13 16:43:46;;;;;;;0.77;0.50;;;17.80;83.50;;;;;;5016702;28;20057;-80
2023/04/13 16:46:14;;;;;;;0.68;0.50;;;17.00;84.60;;;;;;5001313;28;20778;-80
2023/04/13 16:48:41;;;;;;;0.77;0.40;;;16.40;87.40;;;;;;5017608;28;20615;-81
2023/04/13 16:51:08;;;;;;;0.65;0.40;;;16.00;90.40;;;;;;4997905;28;20045;-77
2023/04/13 16:53:35;;;;;;;0.85;0.50;;;15.50;91.70;;;;;;5015362;28;20137;-80
2023/04/13 16:56:06;;;;;;;0.98;0.60;;;15.40;92.20;;;;;;4998683;28;20519;-80
2023/04/13 16:58:47;;;;;;;0.77;0.60;;;15.20;92.30;;;;;;4995222;28;20049;-80
2023/04/13 17:01:14;;;;;;;1.33;0.60;;;14.80;92.20;;;;;;4996627;28;20132;-80
2023/04/13 17:03:41;;;;;;;0.60;0.60;;;14.50;92.80;;;;;;4997436;28;20041;-80
2023/04/13 17:06:08;;;;;;;0.68;0.50;;;14.10;93.60;;;;;;5010426;28;20046;-80
2023/04/13 17:08:35;;;;;;;1.23;0.75;;;13.70;94.40;;;;;;5002921;28;20449;-80
2023/04/13 17:11:05;;;;;;;0.63;0.60;;;14.00;95.20;;;;;;5001242;28;20056;-80
2023/04/13 17:13:33;;;;;;;0.63;0.55;;;14.90;93.30;;;;;;4996798;28;20045;-80
2023/04/13 17:16:02;;;;;;;0.60;0.57;;;15.00;93.10;;;;;;5032199;28;20083;-80
2023/04/13 17:18:29;;;;;;;2.08;0.80;;;14.40;93.30;;;;;;5014524;28;20447;-80
2023/04/13 17:20:56;;;;;;;1.15;0.60;;;14.90;92.80;;;;;;5014198;28;20069;-80
2023/04/13 17:23:23;;;;;;;1.48;0.70;;;14.80;93.10;;;;;;4996392;28;20152;-80
2023/04/13 17:25:55;;;;;;;0.50;0.50;;;15.10;92.70;;;;;;4980065;28;20081;-81
2023/04/13 17:28:21;;;;;;;0.57;0.47;;;14.80;93.10;;;;;;4999346;28;20068;-82
2023/04/13 17:30:48;;;;;;;0.28;0.28;;;14.50;93.50;;;;;;5014609;28;20099;-80
2023/04/13 17:33:16;;;;;;;0.50;0.40;;;13.90;94.30;;;;;;5012805;28;20073;-80
2023/04/13 17:35:42;;;;;;;1.08;0.60;;;13.40;94.50;;;;;;4997756;28;20049;-81
2023/04/13 17:38:10;;;;;;;0.40;0.40;;;13.00;94.70;;;;;;4998467;28;20485;-80
2023/04/13 17:40:37;;;;;;;0.73;0.40;;;12.70;95.40;;;;;;5014304;28;20059;-81
2023/04/13 17:43:06;;;;;;;1.48;0.60;;;12.40;95.20;;;;;;5014879;28;20067;-80
2023/04/13 17:45:33;;;;;;;0.47;0.45;;;12.10;95.40;;;;;;4997742;28;20118;-80
2023/04/13 17:48:00;;;;;;;1.27;0.70;;;11.90;95.70;;;;;;4999165;28;20140;-80
2023/04/13 17:50:27;;;;;;;1.00;0.57;;;11.80;95.60;;;;;;4998584;28;20053;-80
2023/04/13 17:52:54;;;;;;;0.63;0.60;;;11.60;96.40;;;;;;4999822;28;20394;-81
2023/04/13 17:55:21;;;;;;;1.33;0.80;;;11.50;96.40;;;;;;5014894;28;20061;-81
2023/04/13 17:57:49;;;;;;;0.50;0.50;;;11.40;95.90;;;;;;5015354;28;20127;-80
2023/04/13 18:00:16;;;;;;;1.08;0.63;;;11.30;97.20;;;;;;5006015;28;20046;-80
2023/04/13 18:02:48;;;;;;;1.00;0.60;;;11.20;96.60;;;;;;4999920;28;20057;-80
2023/04/13 18:05:17;;;;;;;0.80;0.40;;;11.20;96.20;;;;;;5014044;28;20129;-80
2023/04/13 18:07:44;;;;;;;0.63;0.60;;;11.10;97.00;;;;;;5009367;28;20180;-82
2023/04/13 18:10:11;;;;;;;0.80;0.50;;;11.10;96.40;;;;;;4997248;28;20052;-82
2023/04/13 18:12:38;;;;;;;0.50;0.50;;;11.00;96.50;;;;;;5014604;28;20053;-81
2023/04/13 18:15:06;;;;;;;0.60;0.57;;;10.90;97.10;;;;;;4997266;28;20057;-81
2023/04/13 18:17:34;;;;;;;0.65;0.40;;;10.80;96.20;;;;;;4979321;28;20136;-81
2023/04/13 18:20:02;;;;;;;0.40;0.40;;;10.60;95.80;;;;;;4999251;28;20053;-81
2023/04/13 18:22:32;;;;;;;0.50;0.50;;;10.60;96.30;;;;;;4989558;28;20061;-81
2023/04/13 18:24:59;;;;;;;1.17;0.70;;;10.40;96.10;;;;;;5026307;28;20053;-81
2023/04/13 18:27:26;;;;;;;0.60;0.60;;;10.30;96.40;;;;;;4994785;28;20056;-81
2023/04/13 18:29:54;;;;;;;1.45;0.70;;;10.20;97.00;;;;;;4995781;28;20120;-81
2023/04/13 18:32:22;;;;;;;0.90;0.60;;;10.20;96.00;;;;;;5013409;28;20057;-82
2023/04/13 18:34:49;;;;;;;1.33;0.65;;;10.10;96.40;;;;;;5011848;28;20049;-82
2023/04/13 18:37:16;;;;;;;1.27;0.80;;;10.10;96.60;;;;;;5011326;28;20056;-81
2023/04/13 18:39:43;;;;;;;0.63;0.63;;;10.00;96.20;;;;;;5013888;28;20172;-81
2023/04/13 18:42:10;;;;;;;0.95;0.88;;;9.90;96.30;;;;;;4997881;28;20527;-81
2023/04/13 18:44:37;;;;;;;0.52;0.52;;;9.90;96.80;;;;;;4994951;28;20084;-81
2023/04/13 18:47:04;;;;;;;0.68;0.60;;;9.80;96.40;;;;;;5030437;28;20422;-81
2023/04/13 18:49:31;;;;;;;0.77;0.60;;;9.70;97.00;;;;;;4996823;28;20049;-81
2023/04/13 18:51:59;;;;;;;0.50;0.50;;;9.70;97.30;;;;;;4995704;28;20064;-81
2023/04/13 18:54:26;;;;;;;0.85;0.57;;;9.60;97.80;;;;;;5012384;28;20119;-81
2023/04/13 18:56:53;;;;;;;0.60;0.55;;;9.50;98.20;;;;;;4998136;28;20666;-83
2023/04/13 18:59:20;;;;;;;0.60;0.60;;;9.50;98.50;;;;;;4997732;28;20101;-81
2023/04/13 19:01:47;;;;;;;1.40;0.80;;;9.40;99.40;;;;;;4994720;28;20410;-81
2023/04/13 19:04:14;;;;;;;0.77;0.70;;;9.30;99.50;;;;;;4998101;28;20057;-81
2023/04/13 19:06:42;;;;;;;0.70;0.70;;;9.20;99.90;;;;;;4997586;28;20069;-81
2023/04/13 19:09:09;;;;;;;0.65;0.65;;;9.10;99.90;;;;;;5014912;28;20602;-81
2023/04/13 19:12:06;;;;;;;1.00;0.70;;;9.10;99.90;;;;;;4998288;28;20497;-81
2023/04/13 19:14:33;;;;;;;0.65;0.65;;;9.00;99.90;;;;;;4999867;28;20125;-81
2023/04/13 19:17:00;;;;;;;0.50;0.50;;;8.90;99.90;;;;;;4981664;28;20516;-81
2023/04/13 19:19:27;;;;;;;0.68;0.65;;;8.90;99.90;;;;;;4999616;28;20500;-80
2023/04/13 19:21:54;;;;;;;0.73;0.50;;;8.80;99.90;;;;;;4985707;28;20052;-80
2023/04/13 19:24:21;;;;;;;0.50;0.50;;;8.70;99.90;;;;;;5001732;28;20065;-81
2023/04/13 19:26:48;;;;;;;0.40;0.40;;;8.70;99.90;;;;;;5003965;28;20049;-86
2023/04/13 19:29:16;;;;;;;0.47;0.47;;;8.60;99.90;;;;;;5003052;28;20132;-82
2023/04/13 19:31:43;;;;;;;0.60;0.60;;;8.60;99.90;;;;;;5000255;28;20149;-84
2023/04/13 19:34:11;;;;;;;0.50;0.50;;;8.50;99.90;;;;;;5003091;28;20481;-85
2023/04/13 19:36:38;;;;;;;0.68;0.65;;;8.50;99.90;;;;;;5007906;28;20134;-84
2023/04/13 19:39:06;;;;;;;0.70;0.70;;;8.40;99.90;;;;;;5021878;28;20045;-83
2023/04/13 19:41:35;;;;;;;0.55;0.55;;;8.40;99.90;;;;;;5005639;28;20137;-83
2023/04/13 19:44:02;;;;;;;0.60;0.60;;;8.40;99.90;;;;;;5005350;28;20127;-86
2023/04/13 19:46:31;;;;;;;0.73;0.57;;;8.30;99.90;;;;;;5007421;28;20065;-86
2023/04/13 19:49:00;;;;;;;0.82;0.57;;;8.20;99.90;;;;;;5009122;28;20049;-85
2023/04/13 19:51:28;;;;;;;0.77;0.60;;;8.20;99.90;;;;;;5004557;28;20085;-84
2023/04/13 19:53:56;;;;;;;0.60;0.60;;;8.20;99.90;;;;;;4999553;28;20049;-84
2023/04/13 19:56:23;;;;;;;0.73;0.65;;;8.20;99.90;;;;;;5007673;28;20512;-84
2023/04/13 19:58:50;;;;;;;0.40;0.40;;;8.10;99.90;;;;;;5007929;28;20571;-84
2023/04/13 20:01:17;;;;;;;1.00;0.65;;;8.00;99.90;;;;;;5024153;28;20045;-85
2023/04/13 20:03:44;;;;;;;0.88;0.70;;;8.00;99.90;;;;;;5007352;28;20514;-83
2023/04/13 20:06:12;;;;;;;0.60;0.60;;;7.90;99.90;;;;;;5006785;28;20060;-85
2023/04/13 20:08:41;;;;;;;0.47;0.47;;;7.90;99.90;;;;;;5012427;28;20060;-84
2023/04/13 20:11:08;;;;;;;0.40;0.40;;;7.80;99.90;;;;;;5007576;28;20045;-84
2023/04/13 20:13:35;;;;;;;0.57;0.45;;;7.80;99.90;;;;;;5008915;28;20049;-83
2023/04/13 20:16:02;;;;;;;0.93;0.52;;;7.80;99.90;;;;;;5008466;28;20076;-85
2023/04/13 20:18:29;;;;;;;1.42;0.73;;;7.70;99.90;;;;;;5011432;28;20052;-86
2023/04/13 20:20:59;;;;;;;0.50;0.50;;;7.70;99.90;;;;;;5012224;28;20077;-85
2023/04/13 20:23:30;;;;;;;1.30;0.60;;;7.60;99.90;;;;;;5008641;28;20132;-87
2023/04/13 20:25:57;;;;;;;1.00;0.45;;;7.60;99.90;;;;;;5006766;28;20053;-87
2023/04/13 20:28:24;;;;;;;0.85;0.70;;;7.60;99.90;;;;;;5020006;28;20378;-83
2023/04/13 20:30:51;;;;;;;0.75;0.70;;;7.60;99.90;;;;;;5003211;28;20168;-83
2023/04/13 20:33:18;;;;;;;0.60;0.57;;;7.50;99.90;;;;;;5020979;28;20053;-85
2023/04/13 20:35:45;;;;;;;0.50;0.50;;;7.50;99.90;;;;;;5007302;28;20818;-82
2023/04/13 20:38:12;;;;;;;0.50;0.50;;;7.50;99.90;;;;;;5019696;28;20053;-83
2023/04/13 20:40:40;;;;;;;0.63;0.63;;;7.50;99.90;;;;;;5004836;28;20053;-84
2023/04/13 20:43:09;;;;;;;0.73;0.70;;;7.40;99.90;;;;;;4989151;28;20119;-84
2023/04/13 20:45:37;;;;;;;0.47;0.47;;;7.40;99.90;;;;;;5006371;28;20071;-83
2023/04/13 20:48:05;;;;;;;1.70;0.65;;;7.40;99.90;;;;;;5007401;28;20053;-84
2023/04/13 20:50:35;;;;;;;1.08;0.90;;;7.40;99.90;;;;;;5006325;28;20056;-83
2023/04/13 20:53:03;;;;;;;0.98;0.85;;;7.30;99.90;;;;;;5004293;28;20252;-83
2023/04/13 20:55:31;;;;;;;0.98;0.80;;;7.30;99.90;;;;;;5001397;28;20062;-83
2023/04/13 20:57:58;;;;;;;2.40;1.10;;;7.30;99.90;;;;;;4986895;28;20104;-82
2023/04/13 21:00:26;;;;;;;1.27;0.80;;;7.30;99.90;;;;;;4987974;28;20053;-85
2023/04/13 21:02:53;;;;;;;1.08;0.75;;;7.20;99.90;;;;;;5006063;28;20073;-84
2023/04/13 21:05:21;;;;;;;0.80;0.60;;;7.20;99.90;;;;;;5009128;28;20046;-86
2023/04/13 21:07:49;;;;;;;1.58;0.98;;;7.20;99.90;;;;;;5006470;28;20126;-84
2023/04/13 21:10:16;;;;;;;1.40;0.90;;;7.20;99.90;;;;;;5006318;28;20141;-86
2023/04/13 21:12:43;;;;;;;0.60;0.50;;;7.20;99.90;;;;;;5007615;28;20528;-86
2023/04/13 21:15:10;;;;;;;0.80;0.70;;;7.20;99.90;;;;;;5006239;28;20053;-83
2023/04/13 21:17:37;;;;;;;0.57;0.50;;;7.10;99.90;;;;;;5004568;28;20140;-86
2023/04/13 21:20:07;;;;;;;1.02;0.70;;;7.20;99.90;;;;;;5004300;28;20072;-81
2023/04/13 21:22:35;;;;;;;1.05;0.73;;;7.10;99.90;;;;;;5006292;28;20049;-81
2023/04/13 21:25:03;;;;;;;0.60;0.60;;;7.10;99.90;;;;;;5004506;28;20063;-82
2023/04/13 21:27:30;;;;;;;0.98;0.60;;;7.00;99.90;;;;;;5021260;28;20121;-84
2023/04/13 21:29:58;;;;;;;0.40;0.38;;;7.00;99.90;;;;;;5004424;28;20464;-83
2023/04/13 21:32:25;;;;;;;0.85;0.63;;;7.00;99.90;;;;;;5004713;28;20418;-82
2023/04/13 21:34:53;;;;;;;0.80;0.50;;;6.90;99.90;;;;;;4998463;28;20061;-84
2023/04/13 21:37:20;;;;;;;0.50;0.50;;;6.90;99.90;;;;;;4969295;28;20046;-84
2023/04/13 21:39:49;;;;;;;0.47;0.47;;;6.90;99.90;;;;;;4983605;28;20049;-84
2023/04/13 21:42:16;;;;;;;0.82;0.60;;;6.80;99.90;;;;;;4996734;28;20053;-84
2023/04/13 21:44:42;;;;;;;0.47;0.45;;;6.80;99.90;;;;;;5003460;28;20041;-84
2023/04/13 21:47:09;;;;;;;0.50;0.50;;;6.80;99.90;;;;;;5004032;28;20490;-84
2023/04/13 21:49:36;;;;;;;0.70;0.50;;;6.70;99.90;;;;;;5005100;28;20119;-85
2023/04/13 21:52:03;;;;;;;0.52;0.50;;;6.70;99.90;;;;;;5004113;28;20057;-85
2023/04/13 21:54:30;;;;;;;0.55;0.30;;;6.70;99.90;;;;;;5003756;28;20132;-84
2023/04/13 21:56:58;;;;;;;1.25;0.68;;;6.60;99.90;;;;;;5004898;28;20053;-85
2023/04/13 21:59:26;;;;;;;0.43;0.43;;;6.60;99.90;;;;;;5004812;28;20053;-84
2023/04/13 22:01:53;;;;;;;0.70;0.70;;;6.60;99.90;;;;;;5004658;28;20053;-84
2023/04/13 22:04:20;;;;;;;0.43;0.40;;;6.60;99.90;;;;;;5004029;28;20123;-84
2023/04/13 22:06:48;;;;;;;0.55;0.50;;;6.60;99.90;;;;;;5003962;28;20072;-84
2023/04/13 22:09:15;;;;;;;0.65;0.50;;;6.60;99.90;;;;;;5003101;28;20080;-85
2023/04/13 22:11:42;;;;;;;0.50;0.50;;;6.50;99.90;;;;;;5004821;28;20075;-85
2023/04/13 22:14:09;;;;;;;0.47;0.32;;;6.50;99.90;;;;;;5002513;28;20053;-84
2023/04/13 22:16:36;;;;;;;0.40;0.40;;;6.50;99.90;;;;;;4984693;28;20061;-85
2023/04/13 22:19:03;;;;;;;0.50;0.50;;;6.50;99.90;;;;;;4998272;28;20057;-84
2023/04/13 22:21:32;;;;;;;0.30;0.30;;;6.40;99.90;;;;;;5017595;28;20073;-83
2023/04/13 22:23:59;;;;;;;0.40;0.40;;;6.30;99.90;;;;;;5016949;28;20057;-82
2023/04/13 22:26:26;;;;;;;1.63;0.68;;;6.30;99.90;;;;;;5017537;28;20053;-82
2023/04/13 22:28:53;;;;;;;0.85;0.40;;;6.30;99.90;;;;;;5000281;28;20234;-83
2023/04/13 22:31:20;;;;;;;0.45;0.40;;;6.20;99.90;;;;;;5013227;28;20593;-81
2023/04/13 22:33:47;;;;;;;0.38;0.38;;;6.20;99.90;;;;;;4997284;28;20088;-81
2023/04/13 22:36:18;;;;;;;2.67;0.55;;;6.20;99.90;;;;;;4988420;28;20540;-81
2023/04/13 22:38:48;;;;;;;0.40;0.40;;;6.20;99.90;;;;;;5015516;28;20081;-80
2023/04/13 22:41:15;;;;;;;0.50;0.50;;;6.20;99.90;;;;;;5016914;28;20053;-81
2023/04/13 22:43:42;;;;;;;0.40;0.40;;;6.10;99.90;;;;;;5000107;28;20433;-81
2023/04/13 22:46:10;;;;;;;0.43;0.43;;;6.10;99.90;;;;;;5000998;28;20129;-81
2023/04/13 22:48:37;;;;;;;0.40;0.40;;;6.10;99.90;;;;;;5016833;28;20091;-81
2023/04/13 22:51:04;;;;;;;0.40;0.40;;;6.10;99.90;;;;;;5000793;28;20120;-81
2023/04/13 22:53:31;;;;;;;0.30;0.30;;;6.10;99.90;;;;;;5000107;28;20123;-80
2023/04/13 22:55:59;;;;;;;0.30;0.30;;;6.10;99.90;;;;;;5001093;28;20266;-82
2023/04/13 22:58:26;;;;;;;0.40;0.40;;;6.10;99.90;;;;;;5001022;28;20467;-82
2023/04/13 23:00:53;;;;;;;0.32;0.32;;;6.10;99.90;;;;;;5000191;28;20054;-81
2023/04/13 23:03:21;;;;;;;0.40;0.40;;;6.00;99.90;;;;;;5016766;28;20441;-82
2023/04/13 23:05:48;;;;;;;0.73;0.60;;;6.00;99.90;;;;;;5000819;28;20809;-81
2023/04/13 23:08:15;;;;;;;0.65;0.60;;;6.00;99.90;;;;;;5000573;28;20349;-81
2023/04/13 23:10:42;;;;;;;0.40;0.40;;;6.00;99.90;;;;;;5016097;28;20711;-82
2023/04/13 23:13:09;;;;;;;0.40;0.40;;;6.10;99.90;;;;;;5016755;28;20053;-81
2023/04/13 23:15:36;;;;;;;0.90;0.30;;;6.10;99.90;;;;;;5000776;28;20077;-82
2023/04/13 23:18:03;;;;;;;0.40;0.40;;;6.10;99.90;;;;;;5001597;28;20129;-82
2023/04/13 23:20:30;;;;;;;0.50;0.50;;;6.10;99.90;;;;;;5001101;28;20313;-81
2023/04/13 23:22:57;;;;;;;0.43;0.40;;;6.10;99.90;;;;;;5000037;28;20115;-82
2023/04/13 23:25:24;;;;;;;0.55;0.55;;;6.20;99.90;;;;;;4999972;28;20056;-82
2023/04/13 23:27:51;;;;;;;0.40;0.40;;;6.10;99.90;;;;;;5001657;28;20057;-82
2023/04/13 23:30:19;;;;;;;0.30;0.30;;;6.10;99.90;;;;;;5001232;28;20149;-81
2023/04/13 23:32:46;;;;;;;0.40;0.40;;;6.20;99.90;;;;;;5011886;28;20068;-81
2023/04/13 23:35:13;;;;;;;0.40;0.40;;;6.20;99.90;;;;;;5000907;28;20477;-81
2023/04/13 23:37:41;;;;;;;0.45;0.45;;;6.10;99.90;;;;;;5001517;28;20154;-81
2023/04/13 23:40:09;;;;;;;0.63;0.45;;;6.10;99.90;;;;;;5001267;28;20045;-81
2023/04/13 23:42:36;;;;;;;0.40;0.40;;;6.20;99.90;;;;;;4998477;28;20054;-81
2023/04/13 23:45:03;;;;;;;0.40;0.40;;;6.20;99.90;;;;;;5000761;28;20053;-81
2023/04/13 23:47:30;;;;;;;0.25;0.25;;;6.20;99.90;;;;;;5017189;28;20156;-81
2023/04/13 23:49:57;;;;;;;0.30;0.30;;;6.20;99.90;;;;;;5017424;28;20493;-82
2023/04/13 23:52:24;;;;;;;0.40;0.40;;;6.20;99.90;;;;;;5017288;28;20513;-83